Terminal Aerodrome Forecast
Issued by NWS Corpus Christi, TX

Home | Current Version | Previous Version | Text Only | Print | Product List | Glossary On
Versions: 1 2 3 4 5 6 7 8 9 10 11 12 13 14 15 16 17 18 19 20
113
FTUS44 KCRP 170526
TAFCRP
TAF
KCRP 170526Z 1706/1806 15010KT P6SM BKN014
     FM171200 16006KT 6SM BR VCSH OVC007
     FM171500 15011KT P6SM VCSH BKN015 BKN025
     FM171900 15010KT P6SM VCTS BKN025CB OVC100 PROB30 1721/1801
      VRB20G30KT 4SM TSRA OVC020CB
     FM180100 10008KT 5SM -TSRA BR SCT008 OVC012CB=

USA.gov is the U.S. government's official web portal to all federal, state and local government web resources and services.